Time;durP1;ratioP1;P1;durP2;ratioP2;P2;SDS_P1;SDS_P2;PMS_P1;PMS_P2;Temp;Humidity;BMP_temperature;BMP_pressure;BME280_temperature;BME280_humidity;BME280_pressure;Samples;Min_cycle;Max_cycle;Signal;HPM_P1;HPM_P2
2023/03/23 00:02:58;;;;;;;52.55;29.85;;;;;;;5.99;63.47;100813.28;1771097;79;21248;-62
2023/03/23 00:06:08;;;;;;;50.98;29.77;;;;;;;5.94;63.51;100808.75;1749283;80;21372;-62
2023/03/23 00:09:11;;;;;;;48.68;29.25;;;;;;;5.87;63.50;100806.20;1771394;80;21177;-63
2023/03/23 00:12:17;;;;;;;53.68;31.02;;;;;;;5.81;63.52;100810.30;1771164;81;21317;-62
2023/03/23 00:15:25;;;;;;;54.35;31.85;;;;;;;5.78;63.70;100803.78;1771513;79;21209;-62
2023/03/23 00:18:30;;;;;;;60.10;33.48;;;;;;;5.77;63.82;100807.47;1771493;79;21363;-62
2023/03/23 00:21:42;;;;;;;50.33;33.00;;;;;;;5.76;63.88;100803.54;1771241;80;21194;-62
2023/03/23 00:24:52;;;;;;;53.73;32.20;;;;;;;5.75;63.99;100800.47;1771225;79;21757;-62
2023/03/23 00:27:58;;;;;;;55.52;31.77;;;;;;;5.74;64.10;100798.24;1771359;80;21173;-62
2023/03/23 00:31:10;;;;;;;49.03;30.92;;;;;;;5.71;64.07;100795.80;1771090;79;21201;-62
2023/03/23 00:34:20;;;;;;;53.78;31.10;;;;;;;5.69;64.10;100796.95;1764076;79;21332;-62
2023/03/23 00:37:24;;;;;;;55.65;32.67;;;;;;;5.66;64.07;100794.50;1771196;80;21370;-62
2023/03/23 00:40:30;;;;;;;54.75;31.40;;;;;;;5.63;64.11;100793.37;1771209;80;21177;-62
2023/03/23 00:43:36;;;;;;;55.20;31.85;;;;;;;5.61;64.15;100789.97;1770050;80;21170;-62
2023/03/23 00:46:44;;;;;;;48.95;30.23;;;;;;;5.58;64.24;100789.72;1773337;79;21201;-62
2023/03/23 00:49:52;;;;;;;49.93;32.20;;;;;;;5.54;64.17;100786.05;1773238;80;21240;-62
2023/03/23 00:52:59;;;;;;;54.63;33.88;;;;;;;5.52;64.27;100786.67;1773513;79;21236;-63
2023/03/23 00:56:04;;;;;;;60.52;36.70;;;;;;;5.52;64.43;100786.67;1773359;79;21438;-62
2023/03/23 00:59:11;;;;;;;55.58;36.10;;;;;;;5.50;64.56;100779.18;1773315;79;21177;-62
2023/03/23 01:02:19;;;;;;;63.52;40.58;;;;;;;5.50;64.58;100775.11;1773261;80;21364;-62
2023/03/23 01:05:31;;;;;;;64.60;37.73;;;;;;;5.46;64.55;100785.38;1773333;79;21201;-63
2023/03/23 01:08:33;;;;;;;59.77;36.23;;;;;;;5.45;64.66;100780.95;1773214;79;21353;-63
2023/03/23 01:11:38;;;;;;;63.70;38.35;;;;;;;5.45;64.82;100784.15;1773443;79;21209;-63
2023/03/23 01:14:42;;;;;;;64.60;38.50;;;;;;;5.46;64.98;100779.07;1773214;80;21212;-62
2023/03/23 01:17:49;;;;;;;61.33;38.45;;;;;;;5.47;65.08;100777.58;1773279;79;21311;-62
2023/03/23 01:20:54;;;;;;;69.22;38.05;;;;;;;5.46;65.16;100775.00;1773238;80;21225;-64
2023/03/23 01:24:00;;;;;;;65.45;39.13;;;;;;;5.46;65.17;100777.23;1773432;79;21355;-62
2023/03/23 01:27:06;;;;;;;62.05;38.65;;;;;;;5.44;65.14;100774.30;1773437;80;21378;-62
2023/03/23 01:30:12;;;;;;;59.05;36.93;;;;;;;5.41;65.03;100777.25;1773371;80;21170;-62
2023/03/23 01:33:18;;;;;;;62.20;37.45;;;;;;;5.37;64.96;100775.81;1773228;80;21188;-62
2023/03/23 01:36:32;;;;;;;72.87;37.33;;;;;;;5.34;64.94;100782.86;1749750;80;21201;-61
2023/03/23 01:39:35;;;;;;;;;;;;;;;5.31;65.11;100780.42;1775918;79;21225;-62
2023/03/23 01:42:42;;;;;;;49.48;31.95;;;;;;;5.30;65.18;100789.53;1764014;80;20279;-63
2023/03/23 01:45:48;;;;;;;54.40;32.40;;;;;;;5.27;65.30;100792.52;1771752;78;21185;-63
2023/03/23 01:48:54;;;;;;;48.75;32.15;;;;;;;5.24;65.31;100788.71;1771493;79;21169;-63
2023/03/23 01:52:07;;;;;;;56.25;33.08;;;;;;;5.21;65.28;100795.28;1771324;80;21244;-62
2023/03/23 01:55:18;;;;;;;51.60;31.30;;;;;;;5.17;65.25;100791.09;1771151;80;21217;-61
2023/03/23 01:58:31;;;;;;;48.58;31.25;;;;;;;5.13;65.26;100790.13;1784823;80;21170;-62
2023/03/23 02:01:44;;;;;;;51.23;32.45;;;;;;;5.12;65.41;100797.92;1771501;80;21224;-63
2023/03/23 02:04:51;;;;;;;52.08;32.23;;;;;;;5.11;65.49;100788.03;1771198;80;21256;-62
2023/03/23 02:07:56;;;;;;;52.45;32.20;;;;;;;5.11;65.65;100793.46;1770990;79;21186;-62
2023/03/23 02:11:00;;;;;;;63.08;35.83;;;;;;;5.09;65.63;100797.66;1770923;79;21197;-62
2023/03/23 02:14:06;;;;;;;62.83;36.65;;;;;;;5.08;65.73;100790.53;1771431;80;21158;-63
2023/03/23 02:17:32;;;;;;;54.18;35.03;;;;;;;5.09;65.81;100798.19;1771111;79;21237;-62
2023/03/23 02:20:57;;;;;;;54.03;33.88;;;;;;;5.09;65.97;100794.95;1770955;80;21185;-62
2023/03/23 02:24:38;;;;;;;58.58;35.60;;;;;;;5.08;65.98;100797.31;1770959;79;21209;-64
2023/03/23 02:27:58;;;;;;;53.80;31.77;;;;;;;5.07;66.05;100797.45;1772870;80;21689;-63
2023/03/23 02:31:12;;;;;;;58.15;33.38;;;;;;;5.04;66.01;100800.42;1772427;81;21173;-63
2023/03/23 02:34:25;;;;;;;;;;;;;;;4.98;65.89;100798.23;1773655;81;21536;-62
2023/03/23 02:37:33;;;;;;;;;;;;;;;4.93;65.83;100795.89;1773681;81;20198;-63
2023/03/23 02:40:42;;;;;;;45.10;27.55;;;;;;;4.91;66.00;100801.09;1770905;79;20293;-62
2023/03/23 02:43:51;;;;;;;52.40;31.40;;;;;;;4.85;65.88;100798.91;1771244;80;21236;-62
2023/03/23 02:46:56;;;;;;;54.90;32.85;;;;;;;4.78;65.78;100798.55;1771055;79;21248;-62
2023/03/23 02:50:03;;;;;;;54.33;34.85;;;;;;;4.77;65.84;100800.04;1771285;80;21177;-62
2023/03/23 02:53:08;;;;;;;58.87;36.00;;;;;;;4.75;65.92;100806.08;1749118;79;21187;-63
2023/03/23 02:56:19;;;;;;;53.42;34.15;;;;;;;4.74;66.08;100806.56;1771032;79;21295;-62
2023/03/23 02:59:25;;;;;;;56.68;35.65;;;;;;;4.77;66.23;100808.17;1771413;80;21375;-62
2023/03/23 03:02:40;;;;;;;51.18;34.63;;;;;;;4.77;66.28;100802.75;1771154;79;21194;-62
2023/03/23 03:06:30;;;;;;;55.35;35.03;;;;;;;4.75;66.29;100804.24;1771309;80;21212;-62
2023/03/23 03:09:53;;;;;;;49.33;32.60;;;;;;;4.76;66.38;100809.18;1771030;80;21197;-63
2023/03/23 03:13:16;;;;;;;48.75;33.42;;;;;;;4.72;66.31;100813.12;1771776;80;21224;-63
2023/03/23 03:16:35;;;;;;;51.88;33.23;;;;;;;4.68;66.29;100819.80;1771545;80;21252;-63
2023/03/23 03:19:46;;;;;;;51.70;33.23;;;;;;;4.68;66.29;100819.80;1771477;79;21366;-63
2023/03/23 03:22:53;;;;;;;53.60;35.08;;;;;;;4.63;66.32;100824.22;1771500;79;21308;-63
2023/03/23 03:25:59;;;;;;;62.62;36.80;;;;;;;4.59;66.29;100820.93;1771488;80;21201;-63
2023/03/23 03:29:06;;;;;;;57.03;34.53;;;;;;;4.59;66.47;100818.70;1771394;80;21439;-62
2023/03/23 03:32:13;;;;;;;57.75;36.03;;;;;;;4.57;66.63;100820.67;1771282;80;21221;-62
2023/03/23 03:35:19;;;;;;;51.88;33.28;;;;;;;4.59;66.85;100819.58;1749208;81;21173;-62
2023/03/23 03:38:27;;;;;;;55.65;34.48;;;;;;;4.61;66.84;100814.02;1771200;80;21177;-62
2023/03/23 03:41:32;;;;;;;58.48;35.90;;;;;;;4.56;66.65;100813.06;1786166;80;21244;-58
2023/03/23 03:44:40;;;;;;;58.90;36.83;;;;;;;4.51;66.49;100813.93;1771363;79;21201;-58
2023/03/23 03:47:50;;;;;;;58.38;35.40;;;;;;;4.50;66.46;100818.12;1770049;79;21189;-58
2023/03/23 03:51:00;;;;;;;53.70;33.70;;;;;;;4.51;66.62;100816.64;1770956;80;21367;-59
2023/03/23 03:54:07;;;;;;;51.83;33.15;;;;;;;4.51;66.68;100819.35;1771121;79;21418;-59
2023/03/23 03:57:17;;;;;;;52.53;33.38;;;;;;;4.51;66.72;100815.28;1771616;79;21181;-59
2023/03/23 04:00:41;;;;;;;63.48;34.45;;;;;;;4.47;66.57;100802.95;1763174;79;21240;-58
2023/03/23 04:03:48;;;;;;;55.58;34.20;;;;;;;4.47;66.64;100817.86;1771038;79;21232;-58
2023/03/23 04:06:57;;;;;;;81.15;44.30;;;;;;;4.48;66.65;100824.16;1770420;80;21519;-57
2023/03/23 04:10:01;;;;;;;103.50;52.48;;;;;;;4.49;66.79;100817.73;1770457;80;21714;-58
2023/03/23 04:13:09;;;;;;;86.25;46.65;;;;;;;4.57;67.10;100826.09;1740064;79;21205;-58
2023/03/23 04:16:20;;;;;;;80.47;44.38;;;;;;;4.69;67.28;100829.65;1770768;81;21244;-58
2023/03/23 04:19:28;;;;;;;85.47;45.58;;;;;;;4.75;67.36;100830.48;1771214;79;21431;-57
2023/03/23 04:22:34;;;;;;;70.95;43.80;;;;;;;4.80;67.31;100830.97;1785892;79;21181;-57
2023/03/23 04:25:41;;;;;;;70.35;40.10;;;;;;;4.87;67.44;100831.67;1771103;79;21165;-58
2023/03/23 04:28:50;;;;;;;67.22;39.53;;;;;;;4.98;67.58;100841.64;1772138;79;21426;-58
2023/03/23 04:32:00;;;;;;;64.00;36.85;;;;;;;5.10;67.67;100837.88;1771131;81;21245;-58
2023/03/23 04:35:08;;;;;;;60.08;36.53;;;;;;;5.20;67.65;100834.24;1762312;81;21190;-58
2023/03/23 04:38:15;;;;;;;55.50;35.48;;;;;;;5.29;67.61;100834.84;1770580;80;21252;-58
2023/03/23 04:41:24;;;;;;;62.73;35.48;;;;;;;5.36;67.56;100837.37;1771537;80;21284;-58
2023/03/23 04:44:56;;;;;;;58.55;36.50;;;;;;;5.45;67.54;100838.45;1771253;80;21186;-59
2023/03/23 04:48:04;;;;;;;64.40;35.85;;;;;;;5.57;67.55;100830.58;1771074;78;21197;-58
2023/03/23 04:51:15;;;;;;;57.88;35.65;;;;;;;5.68;67.57;100827.80;1771426;80;21390;-58
2023/03/23 04:54:24;;;;;;;61.65;35.60;;;;;;;5.78;67.60;100832.80;1764855;80;21311;-58
2023/03/23 04:57:31;;;;;;;64.53;35.88;;;;;;;5.86;67.53;100834.38;1771261;79;21280;-58
2023/03/23 05:00:49;;;;;;;59.35;36.10;;;;;;;5.93;67.47;100837.77;1771604;81;21197;-57
2023/03/23 05:03:54;;;;;;;63.33;35.92;;;;;;;6.02;67.45;100845.62;1771302;80;21189;-59
2023/03/23 05:07:01;;;;;;;58.60;35.20;;;;;;;6.14;67.62;100845.88;1771446;80;21182;-58
2023/03/23 05:10:10;;;;;;;51.63;33.73;;;;;;;6.24;67.78;100839.99;1771737;80;21236;-59
2023/03/23 05:13:16;;;;;;;54.05;33.98;;;;;;;6.37;67.85;100842.47;1763812;80;21177;-59
2023/03/23 05:16:22;;;;;;;65.20;37.17;;;;;;;6.48;67.95;100841.00;1771219;79;21240;-58
2023/03/23 05:19:27;;;;;;;60.73;36.05;;;;;;;6.56;67.94;100847.48;1771752;79;21186;-58
2023/03/23 05:22:38;;;;;;;72.37;37.85;;;;;;;6.62;67.95;100850.99;1769423;81;21683;-58
2023/03/23 05:25:47;;;;;;;74.03;39.05;;;;;;;6.73;68.12;100845.44;1771947;80;21531;-59
2023/03/23 05:28:41;;;;;;;86.80;46.25;;;;;;;6.89;68.28;100852.56;1771455;81;21274;-59
2023/03/23 05:31:52;;;;;;;105.85;54.40;;;;;;;6.99;68.28;100850.69;1769704;79;21193;-59
2023/03/23 05:34:58;;;;;;;123.25;63.52;;;;;;;7.08;68.30;100845.77;1786229;80;21297;-59
2023/03/23 05:38:05;;;;;;;136.43;74.30;;;;;;;7.22;68.40;100845.34;1785157;80;21221;-59
2023/03/23 05:41:10;;;;;;;117.30;63.38;;;;;;;7.36;68.50;100844.03;1746542;81;21173;-58
2023/03/23 05:44:15;;;;;;;102.45;55.80;;;;;;;7.52;68.58;100851.13;1771913;80;21194;-59
2023/03/23 05:47:21;;;;;;;92.22;51.68;;;;;;;7.66;68.62;100847.95;1771767;80;21236;-58
2023/03/23 05:50:30;;;;;;;89.40;52.33;;;;;;;7.82;68.72;100847.37;1786688;80;21717;-59
2023/03/23 05:53:37;;;;;;;59.93;36.05;;;;;;;7.98;68.79;100851.67;1761251;80;21383;-58
2023/03/23 05:56:43;;;;;;;70.37;35.52;;;;;;;8.12;68.82;100845.77;1738859;81;21339;-59
2023/03/23 05:59:52;;;;;;;74.30;41.98;;;;;;;8.25;68.83;100844.45;1730649;82;21395;-59
2023/03/23 06:03:03;;;;;;;90.70;51.45;;;;;;;8.39;68.86;100854.86;1730863;81;21229;-59
2023/03/23 06:06:11;;;;;;;62.43;37.20;;;;;;;8.54;68.92;100855.23;1734557;81;21339;-59
2023/03/23 06:09:18;;;;;;;54.35;33.67;;;;;;;8.67;68.94;100853.01;1736571;80;21406;-61
2023/03/23 06:12:29;;;;;;;47.17;28.77;;;;;;;8.80;68.94;100856.25;1765251;80;21398;-60
2023/03/23 06:15:52;;;;;;;42.05;28.75;;;;;;;8.94;69.04;100855.72;1771342;80;21430;-59
2023/03/23 06:19:18;;;;;;;45.80;29.55;;;;;;;9.08;69.13;100855.19;1771745;80;21643;-59
2023/03/23 06:22:31;;;;;;;38.17;25.70;;;;;;;9.22;69.16;100856.01;1771763;79;21187;-60
2023/03/23 06:25:41;;;;;;;40.15;26.30;;;;;;;9.37;69.28;100858.53;1770983;79;21170;-59
2023/03/23 06:28:47;;;;;;;39.35;25.90;;;;;;;9.50;69.21;100861.73;1763612;81;21356;-59
2023/03/23 06:31:55;;;;;;;44.60;26.93;;;;;;;9.62;69.19;100864.59;1770085;79;21185;-60
2023/03/23 06:35:01;;;;;;;46.88;27.58;;;;;;;9.71;69.18;100866.36;1771175;80;21441;-59
2023/03/23 06:38:27;;;;;;;41.92;27.22;;;;;;;9.84;69.29;100858.61;1761370;80;21294;-59
2023/03/23 06:41:33;;;;;;;39.05;25.00;;;;;;;9.99;69.39;100867.94;1758241;80;21477;-60
2023/03/23 06:44:39;;;;;;;36.45;24.50;;;;;;;10.14;69.45;100870.48;1736975;80;21192;-59
2023/03/23 06:47:48;;;;;;;40.38;25.97;;;;;;;10.29;69.55;100866.11;1733114;82;21495;-59
2023/03/23 06:50:54;;;;;;;72.40;26.93;;;;;;;10.47;69.61;100870.14;1765457;80;21712;-58
2023/03/23 06:54:02;;;;;;;36.77;23.85;;;;;;;10.62;69.65;100863.55;1768564;81;21332;-61
2023/03/23 06:57:08;;;;;;;37.98;24.35;;;;;;;10.77;69.67;100863.25;1762782;80;21208;-60
2023/03/23 07:00:15;;;;;;;35.75;24.45;;;;;;;10.91;69.64;100867.59;1738671;81;21594;-60
2023/03/23 07:03:20;;;;;;;34.13;23.38;;;;;;;11.08;69.67;100865.27;1731393;82;21204;-60
2023/03/23 07:06:26;;;;;;;39.27;24.43;;;;;;;11.23;69.67;100869.56;1739854;81;21753;-58
2023/03/23 07:09:32;;;;;;;31.33;24.23;;;;;;;11.37;69.68;100865.65;1738754;81;21284;-57
2023/03/23 07:12:41;;;;;;;33.02;22.00;;;;;;;11.51;69.71;100863.61;1767201;79;21789;-59
2023/03/23 07:15:46;;;;;;;34.63;21.57;;;;;;;11.66;69.73;100862.45;1721545;82;21306;-61
2023/03/23 07:18:54;;;;;;;32.65;22.40;;;;;;;11.80;69.66;100867.24;1706039;83;21199;-59
2023/03/23 07:22:00;;;;;;;36.40;22.85;;;;;;;11.93;69.65;100873.08;1714923;82;21793;-59
2023/03/23 07:25:09;;;;;;;30.27;22.55;;;;;;;12.05;69.66;100868.43;1732433;81;21220;-60
2023/03/23 07:28:18;;;;;;;37.63;22.40;;;;;;;12.18;69.68;100867.06;1708653;83;21226;-59
2023/03/23 07:31:25;;;;;;;36.35;23.02;;;;;;;12.32;69.72;100865.80;1714499;82;21229;-58
2023/03/23 07:34:30;;;;;;;34.27;22.55;;;;;;;12.48;69.73;100864.39;1723921;82;21206;-53
2023/03/23 07:37:43;;;;;;;34.63;23.42;;;;;;;12.60;69.65;100860.25;1703584;83;21797;-59
2023/03/23 07:40:50;;;;;;;32.93;22.58;;;;;;;12.71;69.67;100865.35;1706728;83;21278;-59
2023/03/23 07:43:55;;;;;;;32.55;22.40;;;;;;;12.84;69.67;100854.66;1759245;80;21468;-59
2023/03/23 07:47:01;;;;;;;33.73;22.75;;;;;;;12.97;69.67;100857.66;1762262;79;21283;-59
2023/03/23 07:50:08;;;;;;;32.00;21.70;;;;;;;13.10;69.70;100858.48;1761514;79;21265;-59
2023/03/23 07:53:13;;;;;;;31.33;20.72;;;;;;;13.21;69.68;100857.56;1767440;79;21229;-58
2023/03/23 07:56:20;;;;;;;36.15;22.80;;;;;;;13.34;69.71;100854.21;1735071;81;21757;-59
2023/03/23 07:59:30;;;;;;;28.77;20.12;;;;;;;13.45;69.62;100858.78;1769433;80;21268;-59
2023/03/23 08:02:35;;;;;;;28.32;18.85;;;;;;;13.54;69.60;100854.92;1744078;81;21337;-60
2023/03/23 08:05:42;;;;;;;24.18;18.23;;;;;;;13.67;69.59;100854.84;1767851;79;21222;-60
2023/03/23 08:08:50;;;;;;;28.02;17.85;;;;;;;13.78;69.57;100854.41;1761394;81;21174;-59
2023/03/23 08:12:13;;;;;;;25.60;17.55;;;;;;;13.88;69.50;100850.86;1749506;81;21205;-58
2023/03/23 08:15:26;;;;;;;25.95;18.17;;;;;;;13.98;69.47;100844.07;1755882;79;21278;-59
2023/03/23 08:18:38;;;;;;;26.57;17.55;;;;;;;14.10;69.50;100842.56;1755074;79;21194;-58
2023/03/23 08:22:01;;;;;;;25.60;16.55;;;;;;;14.24;69.52;100836.76;1756978;81;21240;-59
2023/03/23 08:25:25;;;;;;;25.05;17.05;;;;;;;14.35;69.45;100832.20;1768930;79;21401;-59
2023/03/23 08:28:39;;;;;;;26.50;16.73;;;;;;;14.47;69.39;100825.16;1763440;80;21201;-60
2023/03/23 08:32:04;;;;;;;28.80;16.75;;;;;;;14.57;69.37;100823.81;1767345;80;21520;-59
2023/03/23 08:35:20;;;;;;;33.83;17.80;;;;;;;14.72;69.34;100818.29;1767799;79;21178;-59
2023/03/23 08:38:42;;;;;;;27.00;18.20;;;;;;;14.83;69.29;100815.05;1743537;81;21315;-59
2023/03/23 08:41:53;;;;;;;23.25;16.77;;;;;;;14.96;69.29;100812.45;1760772;80;21309;-58
2023/03/23 08:45:02;;;;;;;22.70;17.23;;;;;;;15.06;69.17;100811.63;1747695;80;22045;-60
2023/03/23 08:48:10;;;;;;;24.43;17.42;;;;;;;15.16;69.08;100809.40;1762908;80;21213;-62
2023/03/23 08:51:27;;;;;;;23.20;16.87;;;;;;;15.26;68.99;100815.46;1763084;78;21263;-62
2023/03/23 08:54:46;;;;;;;23.92;17.42;;;;;;;15.35;68.87;100808.77;1743242;81;21201;-62
2023/03/23 08:58:09;;;;;;;26.80;17.92;;;;;;;15.44;68.79;100806.26;1693403;83;21279;-62
2023/03/23 09:01:15;;;;;;;30.75;19.02;;;;;;;15.54;68.66;100808.69;1743455;81;21249;-62
2023/03/23 09:04:26;;;;;;;32.20;18.42;;;;;;;15.63;68.62;100813.02;1742196;81;21339;-62
2023/03/23 09:07:33;;;;;;;32.40;18.50;;;;;;;15.71;68.52;100804.08;1741982;80;21181;-62
2023/03/23 09:10:40;;;;;;;28.42;18.42;;;;;;;15.82;68.38;100799.91;1722641;82;21789;-61
2023/03/23 09:13:48;;;;;;;29.92;17.60;;;;;;;15.88;68.17;100799.97;1729503;81;21205;-61
2023/03/23 09:16:53;;;;;;;25.88;16.25;;;;;;;15.92;68.01;100791.60;1740760;81;21745;-62
2023/03/23 09:20:00;;;;;;;28.70;19.15;;;;;;;16.02;67.98;100796.77;1727026;82;21189;-62
2023/03/23 09:23:05;;;;;;;26.23;18.37;;;;;;;16.11;67.84;100787.30;1715272;83;21197;-61
2023/03/23 09:26:10;;;;;;;30.40;18.42;;;;;;;16.20;67.71;100796.61;1740604;81;21209;-63
2023/03/23 09:29:15;;;;;;;24.40;16.82;;;;;;;16.27;67.54;100787.83;1735119;81;21205;-61
2023/03/23 09:32:22;;;;;;;21.95;16.23;;;;;;;16.40;67.47;100785.15;1736433;81;21236;-62
2023/03/23 09:35:31;;;;;;;22.73;16.12;;;;;;;16.53;67.29;100783.53;1726973;81;21805;-62
2023/03/23 09:38:36;;;;;;;24.23;14.87;;;;;;;16.62;67.10;100780.40;1732513;81;21232;-61
2023/03/23 09:42:07;;;;;;;22.17;15.90;;;;;;;16.74;66.85;100771.86;1744450;80;21209;-62
2023/03/23 09:45:37;;;;;;;24.40;15.58;;;;;;;16.87;66.78;100771.89;1669040;84;21293;-63
2023/03/23 09:49:17;;;;;;;23.95;15.60;;;;;;;17.00;66.67;100771.94;1660278;85;21282;-66
2023/03/23 09:52:24;;;;;;;20.92;15.78;;;;;;;17.08;66.40;100763.98;1745254;79;21212;-65
2023/03/23 09:55:31;;;;;;;23.62;15.53;;;;;;;17.23;66.26;100762.77;1752970;79;21749;-67
2023/03/23 09:58:45;;;;;;;25.17;15.68;;;;;;;17.37;66.08;100765.02;1768159;81;21181;-67
2023/03/23 10:01:59;;;;;;;22.73;15.95;;;;;;;17.50;65.75;100762.30;1765359;79;21268;-61
2023/03/23 10:05:08;;;;;;;25.25;16.50;;;;;;;17.59;65.49;100757.73;1719736;81;21234;-63
2023/03/23 10:08:31;;;;;;;23.10;15.88;;;;;;;17.73;65.34;100766.36;1769782;79;21260;-61
2023/03/23 10:11:51;;;;;;;23.73;15.77;;;;;;;17.90;65.14;100755.16;1734778;81;21204;-64
2023/03/23 10:15:23;;;;;;;21.20;14.00;;;;;;;18.04;64.87;100750.48;1712776;82;21789;-63
2023/03/23 10:18:33;;;;;;;18.98;13.62;;;;;;;18.17;64.58;100749.05;1719412;83;21180;-61
2023/03/23 10:21:38;;;;;;;19.40;14.90;;;;;;;18.30;64.22;100750.41;1720494;82;21234;-62
2023/03/23 10:24:49;;;;;;;20.52;14.20;;;;;;;18.46;64.06;100744.43;1717556;83;21750;-62
2023/03/23 10:28:05;;;;;;;18.37;13.88;;;;;;;18.58;63.81;100746.00;1717076;82;21191;-61
2023/03/23 10:31:10;;;;;;;20.50;14.13;;;;;;;18.69;63.68;100735.09;1697632;83;21302;-61
2023/03/23 10:34:24;;;;;;;21.57;15.20;;;;;;;18.85;63.58;100741.49;1683933;84;21230;-61
2023/03/23 10:37:44;;;;;;;23.18;13.62;;;;;;;18.96;63.29;100739.41;1714492;82;21406;-62
2023/03/23 10:41:08;;;;;;;22.73;13.88;;;;;;;19.00;62.85;100728.20;1760374;80;21213;-62
2023/03/23 10:44:29;;;;;;;19.25;14.23;;;;;;;19.13;62.61;100735.59;1746539;81;21201;-60
2023/03/23 10:47:39;;;;;;;21.37;14.18;;;;;;;19.31;62.38;100727.41;1729284;82;21289;-62
2023/03/23 10:50:50;;;;;;;20.02;14.05;;;;;;;19.38;62.09;100726.80;1708344;83;21238;-62
2023/03/23 10:54:05;;;;;;;18.90;13.72;;;;;;;19.44;62.03;100710.63;1710610;82;21233;-61
2023/03/23 10:57:30;;;;;;;19.00;14.47;;;;;;;19.57;61.96;100711.09;1695050;82;21237;-62
2023/03/23 11:00:35;;;;;;;22.02;15.15;;;;;;;19.58;61.75;100708.08;1759563;79;21229;-62
2023/03/23 11:03:51;;;;;;;21.70;13.05;;;;;;;19.61;61.78;100702.59;1763117;80;21232;-62
2023/03/23 11:07:01;;;;;;;21.30;13.38;;;;;;;19.67;61.87;100707.24;1758072;79;21237;-62
2023/03/23 11:10:19;;;;;;;23.92;13.15;;;;;;;19.77;61.86;100697.86;1750507;80;21276;-62
2023/03/23 11:13:25;;;;;;;19.60;13.80;;;;;;;19.82;61.90;100699.42;1740874;81;21190;-62
2023/03/23 11:16:46;;;;;;;17.17;12.80;;;;;;;19.99;62.18;100691.66;1753245;81;21185;-62
2023/03/23 11:19:54;;;;;;;19.20;12.63;;;;;;;20.24;62.42;100689.70;1739150;81;21212;-62
2023/03/23 11:23:01;;;;;;;17.65;12.60;;;;;;;20.36;62.44;100692.58;1761179;80;21166;-63
2023/03/23 11:26:20;;;;;;;17.00;12.75;;;;;;;20.55;62.60;100692.88;1763136;80;21276;-62
2023/03/23 11:29:29;;;;;;;23.62;13.05;;;;;;;20.64;62.44;100679.77;1757378;79;21745;-63
2023/03/23 11:32:37;;;;;;;20.20;14.98;;;;;;;20.85;62.66;100681.77;1760472;80;21181;-64
2023/03/23 11:35:43;;;;;;;18.37;12.35;;;;;;;20.98;62.73;100676.06;1766939;79;21197;-62
2023/03/23 11:38:50;;;;;;;23.47;13.18;;;;;;;21.12;62.74;100673.38;1763235;80;21174;-63
2023/03/23 11:41:59;;;;;;;20.82;12.90;;;;;;;21.21;62.69;100665.84;1755383;80;21767;-60
2023/03/23 11:45:40;;;;;;;18.05;13.20;;;;;;;21.37;62.87;100666.55;1748106;81;21184;-61
2023/03/23 11:49:08;;;;;;;17.50;12.58;;;;;;;21.46;62.76;100664.25;1765177;81;21237;-61
2023/03/23 11:52:32;;;;;;;16.40;12.23;;;;;;;21.42;62.49;100656.91;1739322;81;21483;-63
2023/03/23 11:56:05;;;;;;;19.17;12.98;;;;;;;21.33;62.30;100655.56;1750601;79;21264;-63
2023/03/23 11:59:14;;;;;;;13.95;11.60;;;;;;;21.14;62.34;100651.16;1759576;80;21182;-62
2023/03/23 12:02:38;;;;;;;16.20;11.63;;;;;;;21.06;62.58;100642.32;1766118;78;21741;-61
2023/03/23 12:06:12;;;;;;;17.75;11.50;;;;;;;21.05;62.42;100641.46;1760405;79;21310;-60
2023/03/23 12:09:43;;;;;;;19.98;11.93;;;;;;;20.95;62.46;100637.53;1761171;80;21268;-61
2023/03/23 12:13:20;;;;;;;13.30;10.75;;;;;;;20.97;62.65;100633.44;1756374;81;21197;-62
2023/03/23 12:17:05;;;;;;;17.77;13.28;;;;;;;20.98;62.70;100632.34;1726366;81;21656;-62
2023/03/23 12:20:29;;;;;;;17.15;12.10;;;;;;;21.10;62.81;100631.00;1765924;80;21189;-62
2023/03/23 12:23:48;;;;;;;18.48;12.43;;;;;;;21.15;62.92;100626.42;1755366;80;21145;-64
2023/03/23 12:27:11;;;;;;;17.32;12.53;;;;;;;21.18;62.91;100631.52;1764957;79;21546;-63
2023/03/23 12:30:48;;;;;;;16.23;11.33;;;;;;;21.23;63.04;100624.66;1704625;84;21216;-63
2023/03/23 12:34:13;;;;;;;20.90;12.60;;;;;;;21.25;62.76;100618.88;1677252;83;21276;-64
2023/03/23 12:37:38;;;;;;;19.62;12.35;;;;;;;21.27;62.86;100616.68;1689629;84;21241;-65
2023/03/23 12:40:57;;;;;;;26.77;16.48;;;;;;;21.36;62.89;100611.91;1691658;83;21327;-63
2023/03/23 12:44:14;;;;;;;17.15;11.83;;;;;;;21.43;63.01;100604.30;1755524;81;21302;-63
2023/03/23 12:47:46;;;;;;;18.60;11.68;;;;;;;21.52;63.03;100602.84;1754310;81;21927;-63
2023/03/23 12:51:05;;;;;;;18.45;11.38;;;;;;;21.60;63.02;100596.91;1769509;79;21757;-64
2023/03/23 12:54:18;;;;;;;18.17;13.58;;;;;;;21.60;62.84;100598.30;1733200;82;21227;-63
2023/03/23 12:57:36;;;;;;;17.00;11.22;;;;;;;21.57;62.79;100594.61;1729530;81;21223;-63
2023/03/23 13:01:11;;;;;;;14.03;10.72;;;;;;;21.62;62.86;100593.34;1707844;83;21221;-63
2023/03/23 13:04:27;;;;;;;17.85;12.50;;;;;;;21.59;62.62;100595.76;1718096;83;21202;-64
2023/03/23 13:07:38;;;;;;;16.30;11.75;;;;;;;21.53;62.67;100590.59;1713807;82;21228;-63
2023/03/23 13:10:49;;;;;;;14.30;9.40;;;;;;;21.51;62.78;100591.41;1759205;80;21777;-63
2023/03/23 13:13:59;;;;;;;15.45;10.75;;;;;;;21.50;62.76;100581.33;1762114;81;21550;-63
2023/03/23 13:17:15;;;;;;;14.75;10.25;;;;;;;21.50;62.69;100582.73;1743197;80;21309;-63
2023/03/23 13:20:42;;;;;;;13.70;9.90;;;;;;;21.49;62.56;100586.61;1751176;79;21209;-64
2023/03/23 13:23:54;;;;;;;14.90;10.28;;;;;;;21.26;62.11;100589.39;1760441;81;21185;-63
2023/03/23 13:27:00;;;;;;;16.75;10.53;;;;;;;20.97;61.81;100588.05;1736155;81;21298;-64
2023/03/23 13:30:06;;;;;;;15.60;11.30;;;;;;;20.79;61.71;100587.53;1753659;79;21166;-63
2023/03/23 13:33:13;;;;;;;34.05;22.70;;;;;;;20.73;61.57;100585.71;1766896;81;21186;-63
2023/03/23 13:36:20;;;;;;;18.98;13.35;;;;;;;20.76;61.52;100580.52;1762148;79;21726;-62
2023/03/23 13:39:35;;;;;;;16.25;11.53;;;;;;;20.82;61.28;100577.88;1758827;80;21224;-63
2023/03/23 13:42:41;;;;;;;13.70;9.70;;;;;;;20.84;61.02;100577.94;1758148;80;21568;-65
2023/03/23 13:45:55;;;;;;;13.30;9.78;;;;;;;20.93;60.74;100581.23;1758459;80;21237;-61
2023/03/23 13:49:21;;;;;;;16.73;11.20;;;;;;;21.04;60.52;100579.88;1745773;80;21380;-62
2023/03/23 13:52:45;;;;;;;15.30;9.93;;;;;;;21.17;60.21;100570.50;1763326;80;21225;-61
2023/03/23 13:55:56;;;;;;;16.75;11.45;;;;;;;21.27;59.79;100563.77;1769503;79;21762;-62
2023/03/23 13:59:14;;;;;;;21.00;11.40;;;;;;;21.29;59.19;100568.02;1768765;81;21789;-62
2023/03/23 14:02:46;;;;;;;16.45;12.45;;;;;;;21.33;58.75;100564.19;1746368;81;21236;-63
2023/03/23 14:05:56;;;;;;;13.95;11.00;;;;;;;21.22;58.31;100564.49;1729835;82;21211;-62
2023/03/23 14:09:04;;;;;;;;;;;;;;;21.04;58.13;100570.14;1706458;83;22051;-62
2023/03/23 14:12:27;;;;;;;13.95;9.93;;;;;;;20.80;57.93;100564.21;1704622;82;20549;-62
2023/03/23 14:15:35;;;;;;;;;;;;;;;20.60;57.70;100571.45;1770412;79;21522;-63
2023/03/23 14:18:46;;;;;;;19.50;12.05;;;;;;;20.36;57.35;100565.48;1768469;79;20249;-62
2023/03/23 14:21:57;;;;;;;32.45;20.95;;;;;;;20.14;57.11;100563.42;1753618;80;21752;-61
2023/03/23 14:25:24;;;;;;;29.37;18.98;;;;;;;19.95;56.90;100560.31;1713752;82;22050;-62
2023/03/23 14:28:30;;;;;;;20.30;13.85;;;;;;;19.84;56.73;100563.34;1709257;83;21205;-62
2023/03/23 14:31:36;;;;;;;29.42;17.20;;;;;;;19.88;56.55;100562.34;1697196;83;21540;-62
2023/03/23 14:34:41;;;;;;;26.27;15.80;;;;;;;19.99;56.21;100565.20;1760517;80;21201;-61
2023/03/23 14:37:46;;;;;;;22.67;14.78;;;;;;;20.06;55.87;100558.18;1764772;80;21357;-62
2023/03/23 14:40:51;;;;;;;37.20;21.70;;;;;;;20.01;55.61;100565.80;1698431;82;21772;-62